Marull, Argentina
Current Conditions -  °F | °C
As of 11:00 PM on Monday 20 Oct 2014 (Local Time) from SACO Reporting Station
Clear Clear  
Wind Chill: 61°   Ceiling: Unl
Heat Index: 61°   Visibility: 6mi
Dew Point: 48°   Wind: 6mph
Humidity: 63%   Direction: 360°N
Pressure: 30.15"   Gusts: NA
Location:  30.97°S, 62.83°W
Report Text: SACO 210200Z 36005KT CAVOK 16/09 Q1021
Loading
Personal Weather Stations






























Interactive Weather Map
Tropical Storm Tracking
New forecast layout! Learn more

10-Day Weather Forecast

Advertisements
Track Severe Weather on mobile